Kaw City, OK (74641)

2:30 AM CDT on September 03, 2014 (GMT -0500)
KOKKAWCI2 | Change Station
CLOSE
Current Station
Personal Weather Station
Location: Kaw City, OK
Elevation: 1127 ft
Nearby Weather Stations

Elev 1127 ft 36.76 °N, 96.87 °W | Updated 21 seconds ago

Mostly Cloudy
Mostly Cloudy
68.4 °F
Feels Like 68.4 °F
N
2.2
Wind Variable Wind from East
Gusts 9.2 mph

Today
High -- | Low -- °F
--% Chance of Precip.
Yesterday
High -- | Low -- °F
Precip. -- in
7:00 AM 7:52 PM
First Quarter, 59% visible
Pressure 29.88 in
Visibility 10.0 miles
Clouds Mostly Cloudy 10000 ft
Dew Point 67 °F
Humidity 95%
Rainfall 0.00 in
Snow Depth Not available.
UV 0 out of 12
Pollen 9.10 out of 12
Air Quality Not available.
Flu Activity Not available.
METAR KPNC 030653Z AUTO 16014KT 10SM BKN100 23/19 A2991 RMK AO2 SLP117 T02330194

More Conditions Fewer Conditions

Pressure 29.88 in
Visibility 10.0 miles
Clouds Mostly Cloudy 10000 ft
Dew Point 67 °F
Humidity 95%
Rainfall 0.00 in
Snow Depth Not available.
UV 0 out of 12
Pollen 9.10 out of 12
Air Quality Not available.
Flu Activity Not available.
METAR KPNC 030653Z AUTO 16014KT 10SM BKN100 23/19 A2991 RMK AO2 SLP117 T02330194

More Conditions Fewer Conditions

10-Day Weather Forecast

Almanac

Astronomy

Sep. 03, 2014 Rise Set
Actual Time 7:00 AM CDT 7:52 PM CDT
Civil Twilight 6:33 AM CDT 8:19 PM CDT
Nautical Twilight 6:02 AM CDT 8:50 PM CDT
Astronomical Twilight 5:30 AM CDT 9:22 PM CDT
Moon 3:31 PM CDT 1:00 AM CDT
Length of Visible Light 13h 45m
Length of Day
12h 52m
Tomorrow will be 2m 15s shorter.
First Quarter, 59% of the Moon is Illuminated
Today
First Quarter
Sep 8
Full
Sep 15
Last Quarter
Sep 24
New
Oct 1
First Quarter

Today's Extremes

State Highs State Lows

Community

WunderPhotos

Upload Photos

1,749,891 photos uploaded!

Nearby

Snow Depth

Station Depth Elevation
No new snow has been reported.

Earthquake Activity

City Distance Mag. Time & Date
Helena, Oklahoma 85 miles 3.2 3:05 AM CDT
2014-09-02
Medford, Oklahoma 58 miles 3.3 11:58 PM CDT
2014-09-01
Perry, Oklahoma 49 miles 3.1 6:46 AM CDT
2014-09-01
Jones, Oklahoma 83 miles 3.1 1:49 PM CDT
2014-08-31
Minimum magnitude displayed is 2.5.

Coastal Water Temperatures

Place Temperature
No Stations Reporting

Nearby Weather Stations